My Meet Scores
Sofia Margewich, St. Charles Gymnastics Academy - MyMeetScores.com
Top100 | Top Teams | Upcoming Meets | Completed Meets | Latest | Add Scores | Help| Support | Bookmark and Share

Sofia Margewich, St. Charles Gymnastics Academy
Personal Bests
LevelVault BarsBeamFloorAA
39.4009.150 9.0758.95036.000
49.3009.450 9.7009.57537.925
68.9259.200 9.6009.62536.950
79.4009.250 9.4759.52537.475
Meet Scores
Date Meet Team Session Level Division Vault Bars Beam Floor AA
2022-04-01 Level 6-7-8 State 2022 St. Charles Gymnastics Academy 05 7 Ch B 9.200 9T 9.125 15 9.425 7T 9.500 12T 37.250 11
2022-02-25 Gasparilla Classic St. Charles Gymnastics Academy A10 7 L7 a10 g1 9.350 3 9.250 5T 9.075 8 9.450 3T 37.125 3
2022-02-18 BIG Classic 2022 St. Charles Gymnastics Academy 4A 7 Junior A 8.875 7 8.775 9 8.550 14 9.475 4 35.675 10
2022-02-11 SCGA Classic 2022 St. Charles Gymnastics Academy F2 7 Jr A 9.375 5 9.225 5 9.475 4 9.400 3T 37.475 5
2022-01-21 King Arthur Invitational 2022 St. Charles Gymnastics Academy 8 7 Jr A 9.400 3T 9.100 6 9.000 5T 9.525 3 37.025 2
2022-01-07 St Jude Benefit Meet 2022 St. Charles Gymnastics Academy 4B 7 Jr A 8.950 9T 8.650 18 8.650 13 9.300 11 35.550 16
2021-12-10 St. Nick Invite 2021 St. Charles Gymnastics Academy 1A 7 JrA 9.400 3 8.800 6T 9.150 7 9.400 2 36.750 2
2021-04-15 Illinois level 6 & Xcel Silver State Champion St. Charles Gymnastics Academy 06 6 Multiple 8.750 28T 9.200 21T 9.600 5T 9.325 39 36.875 21
2021-03-12 LUCKY INVITATIONAL St. Charles Gymnastics Academy A02 6 Jr A 8.825 4 9.175 7T 9.375 6T 9.575 2T 36.950 4
2021-02-19 BIG Classic 2021 St. Charles Gymnastics Academy 1B 6 Child A 8.700 6 8.925 3 9.250 3 9.625 1 36.500 2
2021-01-21 King Arthur Invitational St. Charles Gymnastics Academy 4 6 CH 8.925 2 8.500 6 9.500 2 9.475 1 36.400 2
2020-03-06 Illinois Level 4 State Championships St. Charles Gymnastics Academy 2 4 Ch E 9.300 7 9.450 4 9.700 4T 9.475 5 37.925 3
2020-02-21 Great Western Invitational - Women's St. Charles Gymnastics Academy 05 4 Filly 8.800 4 9.425 6 9.600 3 9.225 3T 37.050 3
2020-02-14 Big Classic St. Charles Gymnastics Academy 3B 4 Child C 8.150 15T 9.100 15T 9.700 9 9.050 17T 36.000 9
2020-02-07 SCGA Classic St. Charles Gymnastics Academy 4 4 child B 8.675 3 9.250 2 9.300 5 9.575 1 36.800 2
2020-01-24 King Arthur Invitational St. Charles Gymnastics Academy 1 4 Jr B 8.650 5 9.000 6T 9.175 7T 9.100 5T 35.925 4
2020-01-10 St Jude Benefit Meet St. Charles Gymnastics Academy 3A 4 Jr B 8.300 11 9.200 4 9.275 2 9.300 2 36.075 2
2019-12-13 2019 St Nick St. Charles Gymnastics Academy 6B 4 JrA 9.050 6 9.000 3 8.850 9 9.350 3T 36.250 4
2019-03-22 Illinois Gymnastics State Championships St. Charles Gymnastics Academy 8 4 Ch A 8.150 26 9.250 12 8.950 19 9.000 21 35.350 15
2019-02-15 Women's Midwest Open St. Charles Gymnastics Academy 15 4 Junior A 7.350 15 8.700 9T 9.375 5 8.650 16 34.075 12
2019-02-08 IGI Chicago Style 2019 St. Charles Gymnastics Academy 38 4 231 Lakeshore L4 A 8.300 14 8.050 20 9.175 9 8.450 14 33.975 15
2019-01-25 King Arthur Invitational St. Charles Gymnastics Academy 9 4 JR A 8.000 10T 8.700 8 8.525 13T 8.650 12 33.875 11
2019-01-11 St Jude Benefit Meet St. Charles Gymnastics Academy 7A 4 Jr A 8.550 10 8.525 6T 9.375 6 8.800 12 35.250 10
2018-12-07 St. Nick Invite 2018 St. Charles Gymnastics Academy 5A 4 JrA 7.875 17 8.050 16 8.925 7T 8.900 10T 33.750 15
2018-02-23 Kinetic Classic St. Charles Gymnastics Academy 5 3 Younger 8.900 43T 8.950 64T 8.825 50 8.900 61T 35.575 59
2018-02-16 Big Classic St. Charles Gymnastics Academy 8B 3 Child A 8.850 9 9.150 5 9.050 4 8.950 6 36.000 6
2018-01-26 King Arthur Invitational St. Charles Gymnastics Academy 7 3 JRA 9.400 3T 8.600 7T 9.075 3 8.875 6 35.950 4
2018-01-12 St Jude Benefit Meet St. Charles Gymnastics Academy 7A 3 JrA 9.025 6T 8.600 7 7.600 11 8.925 6T 34.150 9
2017-12-14 2017 Women's Hawaiian Pineapple Classic St. Charles Gymnastics Academy 4A 3 Age7U 9.150 5 8.225 12 7.650 14 8.500 8 33.525 10
2017-12-01 Ultimate Wish Classic St. Charles Gymnastics Academy 5 3 CH 9.000 9T 8.150 13 8.400 5T 8.450 12 34.000 11T
2017-11-17 SCGA Classic St. Charles Gymnastics Academy 1 3 Child 8.800 8 7.700 13 8.550 4 8.350 10 33.400 11
Get your scores on
a t-shirt, pin, or hoodie